sensor_id;sensor_type;location;lat;lon;timestamp;pressure;altitude;pressure_sealevel;temperature;humidity
44992;BME280;56865;51.618;7.406;2023-04-19T01:16:02;101883.00;;;24.17;72.63
44992;BME280;56865;51.618;7.406;2023-04-19T01:18:55;101886.13;;;24.52;72.71
44992;BME280;56865;51.618;7.406;2023-04-19T01:21:46;101886.88;;;24.61;71.15
44992;BME280;56865;51.618;7.406;2023-04-19T01:25:10;101885.38;;;24.42;72.11
44992;BME280;56865;51.618;7.406;2023-04-19T01:28:13;101890.47;;;24.51;71.27
44992;BME280;56865;51.618;7.406;2023-04-19T01:31:25;101879.06;;;24.64;73.32
44992;BME280;56865;51.618;7.406;2023-04-19T01:34:10;101885.16;;;24.60;71.09
44992;BME280;56865;51.618;7.406;2023-04-19T01:36:54;101875.78;;;24.45;71.02
44992;BME280;56865;51.618;7.406;2023-04-19T01:40:14;101877.28;;;24.66;71.83
44992;BME280;56865;51.618;7.406;2023-04-19T01:43:03;101877.28;;;24.66;72.12
44992;BME280;56865;51.618;7.406;2023-04-19T01:45:49;101877.34;;;24.60;72.69
44992;BME280;56865;51.618;7.406;2023-04-19T01:48:37;101869.63;;;24.51;70.84
44992;BME280;56865;51.618;7.406;2023-04-19T01:51:17;101871.41;;;24.46;71.15
44992;BME280;56865;51.618;7.406;2023-04-19T01:54:29;101875.66;;;24.55;72.33
44992;BME280;56865;51.618;7.406;2023-04-19T01:57:41;101876.63;;;24.46;70.77
44992;BME280;56865;51.618;7.406;2023-04-19T02:00:35;101878.59;;;24.25;70.50
44992;BME280;56865;51.618;7.406;2023-04-19T02:03:56;101882.66;;;24.49;72.45
44992;BME280;56865;51.618;7.406;2023-04-19T02:06:41;101883.63;;;24.41;69.72
44992;BME280;56865;51.618;7.406;2023-04-19T02:09:18;101885.78;;;24.01;72.23
44992;BME280;56865;51.618;7.406;2023-04-19T02:12:16;101871.84;;;24.04;71.42
44992;BME280;56865;51.618;7.406;2023-04-19T02:15:25;101878.03;;;23.92;70.93
44992;BME280;56865;51.618;7.406;2023-04-19T02:18:33;101875.44;;;23.89;71.16
44992;BME280;56865;51.618;7.406;2023-04-19T02:21:39;101875.53;;;23.80;70.43
44992;BME280;56865;51.618;7.406;2023-04-19T02:24:53;101876.47;;;23.71;70.58
44992;BME280;56865;51.618;7.406;2023-04-19T02:30:50;101885.09;;;23.76;69.65
44992;BME280;56865;51.618;7.406;2023-04-19T02:33:24;101883.38;;;23.70;69.98
44992;BME280;56865;51.618;7.406;2023-04-19T02:36:00;101877.44;;;23.53;69.65
44992;BME280;56865;51.618;7.406;2023-04-19T02:38:46;101878.34;;;23.46;68.68
44992;BME280;56865;51.618;7.406;2023-04-19T02:41:32;101876.81;;;23.15;70.04
44992;BME280;56865;51.618;7.406;2023-04-19T02:44:32;101880.09;;;23.48;69.01
44992;BME280;56865;51.618;7.406;2023-04-19T02:47:11;101886.97;;;23.54;67.93
44992;BME280;56865;51.618;7.406;2023-04-19T02:49:57;101889.47;;;23.68;68.08
44992;BME280;56865;51.618;7.406;2023-04-19T02:52:43;101887.69;;;23.75;66.88
44992;BME280;56865;51.618;7.406;2023-04-19T02:55:38;101890.25;;;23.79;67.88
44992;BME280;56865;51.618;7.406;2023-04-19T02:58:24;101883.38;;;23.72;67.95
44992;BME280;56865;51.618;7.406;2023-04-19T03:01:30;101886.00;;;23.70;67.79
44992;BME280;56865;51.618;7.406;2023-04-19T03:10:32;101887.81;;;23.62;66.62
44992;BME280;56865;51.618;7.406;2023-04-19T03:13:28;101881.81;;;23.49;66.32
44992;BME280;56865;51.618;7.406;2023-04-19T03:16:21;101875.72;;;23.53;65.19
44992;BME280;56865;51.618;7.406;2023-04-19T03:22:05;101865.31;;;23.53;66.69
44992;BME280;56865;51.618;7.406;2023-04-19T03:24:36;101875.41;;;23.95;67.43
44992;BME280;56865;51.618;7.406;2023-04-19T03:27:23;101873.94;;;23.56;66.74
44992;BME280;56865;51.618;7.406;2023-04-19T03:29:56;101872.16;;;23.64;67.35
44992;BME280;56865;51.618;7.406;2023-04-19T03:32:42;101868.13;;;23.12;65.04
44992;BME280;56865;51.618;7.406;2023-04-19T03:40:46;101869.63;;;23.53;61.74
44992;BME280;56865;51.618;7.406;2023-04-19T03:43:32;101874.00;;;23.49;64.42
44992;BME280;56865;51.618;7.406;2023-04-19T03:46:02;101872.50;;;23.10;64.17
44992;BME280;56865;51.618;7.406;2023-04-19T03:48:32;101862.97;;;23.09;65.70
44992;BME280;56865;51.618;7.406;2023-04-19T03:51:02;101872.50;;;23.07;63.87
44992;BME280;56865;51.618;7.406;2023-04-19T03:53:33;101872.69;;;22.66;63.74
44992;BME280;56865;51.618;7.406;2023-04-19T03:56:04;101870.91;;;22.81;64.99
44992;BME280;56865;51.618;7.406;2023-04-19T03:58:37;101861.34;;;22.86;68.37
44992;BME280;56865;51.618;7.406;2023-04-19T04:01:16;101867.47;;;22.76;65.04
44992;BME280;56865;51.618;7.406;2023-04-19T04:03:46;101871.72;;;22.91;64.60
44992;BME280;56865;51.618;7.406;2023-04-19T04:06:22;101867.44;;;22.72;65.77
44992;BME280;56865;51.618;7.406;2023-04-19T04:08:52;101862.28;;;22.71;65.74
44992;BME280;56865;51.618;7.406;2023-04-19T04:11:24;101870.09;;;22.59;65.81
44992;BME280;56865;51.618;7.406;2023-04-19T04:13:57;101870.94;;;22.65;64.87
44992;BME280;56865;51.618;7.406;2023-04-19T04:16:26;101874.47;;;22.46;64.58
44992;BME280;56865;51.618;7.406;2023-04-19T04:18:56;101875.34;;;22.26;66.52
44992;BME280;56865;51.618;7.406;2023-04-19T04:54:49;101890.09;;;22.01;65.70
44992;BME280;56865;51.618;7.406;2023-04-19T04:57:19;101889.25;;;21.99;65.19
44992;BME280;56865;51.618;7.406;2023-04-19T04:59:49;101885.78;;;21.70;64.39
44992;BME280;56865;51.618;7.406;2023-04-19T05:02:21;101885.78;;;21.92;65.49
44992;BME280;56865;51.618;7.406;2023-04-19T05:04:51;101882.31;;;22.01;64.76
44992;BME280;56865;51.618;7.406;2023-04-19T05:07:21;101889.25;;;21.60;63.85
44992;BME280;56865;51.618;7.406;2023-04-19T05:09:54;101891.81;;;21.91;66.15
44992;BME280;56865;51.618;7.406;2023-04-19T05:12:24;101891.84;;;21.85;62.48
44992;BME280;56865;51.618;7.406;2023-04-19T05:14:55;101893.44;;;21.24;62.79
44992;BME280;56865;51.618;7.406;2023-04-19T05:17:25;101896.91;;;21.18;65.30
44992;BME280;56865;51.618;7.406;2023-04-19T05:19:56;101899.63;;;21.77;64.37
44992;BME280;56865;51.618;7.406;2023-04-19T05:22:43;101907.41;;;21.82;60.99
44992;BME280;56865;51.618;7.406;2023-04-19T05:28:55;101909.94;;;21.45;61.53
44992;BME280;56865;51.618;7.406;2023-04-19T05:31:26;101902.97;;;21.25;60.27
44992;BME280;56865;51.618;7.406;2023-04-19T05:33:59;101899.63;;;21.69;60.51
44992;BME280;56865;51.618;7.406;2023-04-19T05:36:41;101902.22;;;21.65;58.20
44992;BME280;56865;51.618;7.406;2023-04-19T05:39:25;101899.66;;;21.85;60.24
44992;BME280;56865;51.618;7.406;2023-04-19T05:45:48;101905.66;;;21.82;56.54
44992;BME280;56865;51.618;7.406;2023-04-19T05:48:20;101899.63;;;21.72;57.29
44992;BME280;56865;51.618;7.406;2023-04-19T05:50:51;101905.69;;;21.73;56.34
44992;BME280;56865;51.618;7.406;2023-04-19T05:53:23;101904.81;;;21.60;58.44
44992;BME280;56865;51.618;7.406;2023-04-19T05:55:54;101906.47;;;21.41;59.04
44992;BME280;56865;51.618;7.406;2023-04-19T05:58:24;101900.47;;;21.74;58.01
44992;BME280;56865;51.618;7.406;2023-04-19T06:00:56;101897.88;;;21.95;57.30
44992;BME280;56865;51.618;7.406;2023-04-19T06:03:27;101897.00;;;22.34;57.29
44992;BME280;56865;51.618;7.406;2023-04-19T06:05:59;101897.00;;;22.34;58.11
44992;BME280;56865;51.618;7.406;2023-04-19T06:08:30;101893.56;;;22.38;58.83
44992;BME280;56865;51.618;7.406;2023-04-19T06:11:03;101902.16;;;22.58;58.16
44992;BME280;56865;51.618;7.406;2023-04-19T06:13:50;101909.91;;;22.76;53.75
44992;BME280;56865;51.618;7.406;2023-04-19T06:16:22;101907.16;;;23.21;55.76
44992;BME280;56865;51.618;7.406;2023-04-19T06:18:55;101908.41;;;23.93;57.83
44992;BME280;56865;51.618;7.406;2023-04-19T06:21:29;101911.72;;;24.14;56.24
44992;BME280;56865;51.618;7.406;2023-04-19T06:23:59;101916.22;;;23.96;53.41
44992;BME280;56865;51.618;7.406;2023-04-19T06:26:29;101904.66;;;24.24;55.59
44992;BME280;56865;51.618;7.406;2023-04-19T06:29:01;101913.41;;;24.18;54.17
44992;BME280;56865;51.618;7.406;2023-04-19T06:31:35;101907.88;;;24.49;51.71
44992;BME280;56865;51.618;7.406;2023-04-19T06:34:06;101913.66;;;24.77;55.48
44992;BME280;56865;51.618;7.406;2023-04-19T06:36:36;101904.00;;;24.87;50.78
44992;BME280;56865;51.618;7.406;2023-04-19T06:39:06;101914.06;;;25.15;50.40
44992;BME280;56865;51.618;7.406;2023-04-19T06:41:37;101907.56;;;25.45;52.69
44992;BME280;56865;51.618;7.406;2023-04-19T06:44:15;101905.84;;;25.46;50.48
44992;BME280;56865;51.618;7.406;2023-04-19T06:46:59;101909.94;;;25.62;49.81
44992;BME280;56865;51.618;7.406;2023-04-19T06:49:30;101911.44;;;25.15;47.59
44992;BME280;56865;51.618;7.406;2023-04-19T06:52:08;101916.88;;;25.63;48.77
44992;BME280;56865;51.618;7.406;2023-04-19T06:54:38;101924.75;;;26.15;50.55
44992;BME280;56865;51.618;7.406;2023-04-19T06:57:11;101919.84;;;25.93;47.02
44992;BME280;56865;51.618;7.406;2023-04-19T06:59:44;101916.31;;;25.96;48.06
44992;BME280;56865;51.618;7.406;2023-04-19T07:02:22;101908.72;;;26.35;49.35
44992;BME280;56865;51.618;7.406;2023-04-19T07:04:52;101915.19;;;26.14;45.91
44992;BME280;56865;51.618;7.406;2023-04-19T07:07:22;101921.69;;;26.87;48.23
44992;BME280;56865;51.618;7.406;2023-04-19T07:09:57;101914.22;;;26.20;45.68
44992;BME280;56865;51.618;7.406;2023-04-19T07:12:31;101919.03;;;26.43;46.65
44992;BME280;56865;51.618;7.406;2023-04-19T07:15:09;101919.06;;;26.85;46.29
44992;BME280;56865;51.618;7.406;2023-04-19T07:17:50;101917.25;;;26.89;46.85
44992;BME280;56865;51.618;7.406;2023-04-19T07:20:31;101919.03;;;26.43;45.27
44992;BME280;56865;51.618;7.406;2023-04-19T07:23:04;101918.31;;;26.80;47.16
44992;BME280;56865;51.618;7.406;2023-04-19T07:25:45;101928.69;;;27.25;46.25
44992;BME280;56865;51.618;7.406;2023-04-19T07:28:20;101920.78;;;26.86;44.80
44992;BME280;56865;51.618;7.406;2023-04-19T07:31:13;101927.28;;;27.09;44.14
44992;BME280;56865;51.618;7.406;2023-04-19T07:33:52;101924.56;;;26.71;46.96
44992;BME280;56865;51.618;7.406;2023-04-19T07:36:30;101923.28;;;26.92;44.48
44992;BME280;56865;51.618;7.406;2023-04-19T07:39:26;101922.59;;;26.37;43.53
44992;BME280;56865;51.618;7.406;2023-04-19T07:42:10;101926.34;;;26.22;45.91
44992;BME280;56865;51.618;7.406;2023-04-19T07:44:53;101919.06;;;25.88;45.26
44992;BME280;56865;51.618;7.406;2023-04-19T07:48:09;101921.19;;;25.66;45.70
44992;BME280;56865;51.618;7.406;2023-04-19T07:51:01;101919.59;;;25.57;46.44
44992;BME280;56865;51.618;7.406;2023-04-19T07:53:51;101921.47;;;26.01;46.08
44992;BME280;56865;51.618;7.406;2023-04-19T07:56:28;101923.56;;;25.80;45.05
44992;BME280;56865;51.618;7.406;2023-04-19T08:02:18;101928.09;;;26.23;45.21
44992;BME280;56865;51.618;7.406;2023-04-19T08:05:07;101926.53;;;26.13;45.35
44992;BME280;56865;51.618;7.406;2023-04-19T08:07:47;101928.50;;;25.97;44.63
44992;BME280;56865;51.618;7.406;2023-04-19T08:10:43;101926.78;;;25.98;44.24
44992;BME280;56865;51.618;7.406;2023-04-19T08:13:20;101935.53;;;25.93;44.48
44992;BME280;56865;51.618;7.406;2023-04-19T08:16:14;101926.63;;;26.07;46.00
44992;BME280;56865;51.618;7.406;2023-04-19T08:19:18;101909.50;;;25.87;44.61
44992;BME280;56865;51.618;7.406;2023-04-19T09:38:49;101890.47;;;25.23;44.27
44992;BME280;56865;51.618;7.406;2023-04-19T09:54:33;101858.06;;;25.91;45.40
44992;BME280;56865;51.618;7.406;2023-04-19T09:57:03;101849.84;;;26.14;44.93
44992;BME280;56865;51.618;7.406;2023-04-19T09:59:33;101850.56;;;26.24;42.58
44992;BME280;56865;51.618;7.406;2023-04-19T10:02:02;101849.22;;;26.45;43.01
44992;BME280;56865;51.618;7.406;2023-04-19T10:04:33;101839.53;;;26.52;47.07
44992;BME280;56865;51.618;7.406;2023-04-19T10:07:09;101849.84;;;26.59;48.30
44992;BME280;56865;51.618;7.406;2023-04-19T10:09:44;101849.19;;;26.48;42.83
44992;BME280;56865;51.618;7.406;2023-04-19T10:12:19;101840.47;;;26.49;45.77
44992;BME280;56865;51.618;7.406;2023-04-19T10:14:54;101842.06;;;26.97;46.64
44992;BME280;56865;51.618;7.406;2023-04-19T10:17:25;101847.34;;;26.96;47.68
44992;BME280;56865;51.618;7.406;2023-04-19T10:19:56;101838.47;;;26.60;43.97
44992;BME280;56865;51.618;7.406;2023-04-19T10:22:28;101839.50;;;27.32;46.64
44992;BME280;56865;51.618;7.406;2023-04-19T10:25:13;101840.88;;;27.11;43.04
44992;BME280;56865;51.618;7.406;2023-04-19T10:27:43;101842.50;;;27.16;42.80
44992;BME280;56865;51.618;7.406;2023-04-19T10:30:17;101837.56;;;26.63;41.86
44992;BME280;56865;51.618;7.406;2023-04-19T10:32:50;101836.66;;;27.05;41.45
44992;BME280;56865;51.618;7.406;2023-04-19T10:35:22;101826.16;;;27.44;43.54
44992;BME280;56865;51.618;7.406;2023-04-19T10:38:08;101822.00;;;28.36;41.44
44992;BME280;56865;51.618;7.406;2023-04-19T10:58:11;101802.75;;;27.36;39.01
44992;BME280;56865;51.618;7.406;2023-04-19T11:35:34;101764.38;;;29.45;35.60
44992;BME280;56865;51.618;7.406;2023-04-19T11:43:20;101757.31;;;30.43;36.89
44992;BME280;56865;51.618;7.406;2023-04-19T11:45:51;101769.59;;;30.89;37.07
44992;BME280;56865;51.618;7.406;2023-04-19T11:48:25;101759.78;;;30.92;36.35
44992;BME280;56865;51.618;7.406;2023-04-19T11:51:03;101767.88;;;30.88;34.11
44992;BME280;56865;51.618;7.406;2023-04-19T11:53:33;101763.22;;;30.94;35.56
44992;BME280;56865;51.618;7.406;2023-04-19T11:56:09;101748.81;;;30.37;34.34
44992;BME280;56865;51.618;7.406;2023-04-19T11:58:47;101737.00;;;29.76;36.32
44992;BME280;56865;51.618;7.406;2023-04-19T12:01:35;101737.69;;;29.57;35.49
44992;BME280;56865;51.618;7.406;2023-04-19T12:04:14;101745.59;;;30.28;34.55
44992;BME280;56865;51.618;7.406;2023-04-19T12:09:50;101728.34;;;30.89;37.87
44992;BME280;56865;51.618;7.406;2023-04-19T12:12:36;101734.47;;;31.10;35.99
44992;BME280;56865;51.618;7.406;2023-04-19T12:15:41;101709.16;;;31.28;34.04
44992;BME280;56865;51.618;7.406;2023-04-19T12:18:20;101691.19;;;31.37;37.06
44992;BME280;56865;51.618;7.406;2023-04-19T12:23:49;101709.06;;;31.30;34.86
44992;BME280;56865;51.618;7.406;2023-04-19T12:26:22;101695.22;;;31.45;34.00
44992;BME280;56865;51.618;7.406;2023-04-19T12:28:52;101698.19;;;31.38;34.48
44992;BME280;56865;51.618;7.406;2023-04-19T12:31:22;101701.50;;;31.22;30.87
44992;BME280;56865;51.618;7.406;2023-04-19T12:33:52;101689.88;;;32.06;35.83
44992;BME280;56865;51.618;7.406;2023-04-19T12:36:21;101694.88;;;31.74;33.52
44992;BME280;56865;51.618;7.406;2023-04-19T12:38:51;101692.00;;;30.75;32.15
44992;BME280;56865;51.618;7.406;2023-04-19T12:41:24;101684.81;;;31.42;31.35
44992;BME280;56865;51.618;7.406;2023-04-19T12:43:53;101686.75;;;31.98;31.87
44992;BME280;56865;51.618;7.406;2023-04-19T12:46:23;101684.03;;;31.99;35.28
44992;BME280;56865;51.618;7.406;2023-04-19T12:48:53;101692.66;;;31.44;32.39
44992;BME280;56865;51.618;7.406;2023-04-19T12:51:23;101685.66;;;31.64;33.03
44992;BME280;56865;51.618;7.406;2023-04-19T12:53:53;101680.88;;;31.32;34.13
44992;BME280;56865;51.618;7.406;2023-04-19T12:56:26;101672.41;;;32.03;35.39
44992;BME280;56865;51.618;7.406;2023-04-19T12:58:55;101681.25;;;31.83;33.12
44992;BME280;56865;51.618;7.406;2023-04-19T13:01:25;101667.69;;;31.91;31.04
44992;BME280;56865;51.618;7.406;2023-04-19T13:03:55;101679.75;;;32.16;31.03
44992;BME280;56865;51.618;7.406;2023-04-19T13:06:25;101671.56;;;31.84;30.17
44992;BME280;56865;51.618;7.406;2023-04-19T13:08:55;101675.28;;;31.59;32.86
44992;BME280;56865;51.618;7.406;2023-04-19T13:11:29;101662.94;;;31.80;31.28
44992;BME280;56865;51.618;7.406;2023-04-19T13:13:59;101655.50;;;32.07;33.30
44992;BME280;56865;51.618;7.406;2023-04-19T13:16:39;101648.50;;;31.70;31.58
44992;BME280;56865;51.618;7.406;2023-04-19T13:19:09;101652.44;;;31.79;33.62
44992;BME280;56865;51.618;7.406;2023-04-19T13:21:38;101636.56;;;31.61;31.46
44992;BME280;56865;51.618;7.406;2023-04-19T13:24:08;101646.09;;;32.02;31.27
44992;BME280;56865;51.618;7.406;2023-04-19T13:26:40;101631.97;;;32.22;30.31
44992;BME280;56865;51.618;7.406;2023-04-19T13:29:11;101636.09;;;32.08;33.66
44992;BME280;56865;51.618;7.406;2023-04-19T13:31:41;101630.72;;;31.92;31.46
44992;BME280;56865;51.618;7.406;2023-04-19T13:34:12;101633.31;;;32.31;31.82
44992;BME280;56865;51.618;7.406;2023-04-19T13:36:42;101617.81;;;32.42;30.44
44992;BME280;56865;51.618;7.406;2023-04-19T13:39:12;101612.94;;;32.87;30.78
44992;BME280;56865;51.618;7.406;2023-04-19T13:41:46;101622.69;;;32.32;31.55
44992;BME280;56865;51.618;7.406;2023-04-19T13:44:15;101615.38;;;32.72;32.62
44992;BME280;56865;51.618;7.406;2023-04-19T13:46:45;101617.50;;;32.12;30.45
44992;BME280;56865;51.618;7.406;2023-04-19T13:49:15;101623.03;;;31.88;30.80
44992;BME280;56865;51.618;7.406;2023-04-19T13:51:45;101612.69;;;31.24;28.51
44992;BME280;56865;51.618;7.406;2023-04-19T13:54:16;101597.28;;;31.55;30.12
44992;BME280;56865;51.618;7.406;2023-04-19T13:56:49;101602.81;;;32.06;31.61
44992;BME280;56865;51.618;7.406;2023-04-19T13:59:19;101598.31;;;32.62;33.41
44992;BME280;56865;51.618;7.406;2023-04-19T14:01:51;101598.84;;;32.34;31.30
44992;BME280;56865;51.618;7.406;2023-04-19T14:04:23;101585.91;;;32.64;31.83
44992;BME280;56865;51.618;7.406;2023-04-19T14:06:53;101583.59;;;32.76;31.24
44992;BME280;56865;51.618;7.406;2023-04-19T14:09:23;101601.03;;;32.61;29.49
44992;BME280;56865;51.618;7.406;2023-04-19T14:11:55;101581.56;;;32.63;28.34
44992;BME280;56865;51.618;7.406;2023-04-19T14:14:25;101585.66;;;32.51;29.82
44992;BME280;56865;51.618;7.406;2023-04-19T14:16:57;101578.91;;;32.81;31.51
44992;BME280;56865;51.618;7.406;2023-04-19T14:19:27;101569.59;;;32.56;30.97
44992;BME280;56865;51.618;7.406;2023-04-19T14:21:57;101565.00;;;33.11;32.38
44992;BME280;56865;51.618;7.406;2023-04-19T14:24:28;101565.28;;;33.06;31.15
44992;BME280;56865;51.618;7.406;2023-04-19T14:27:01;101566.44;;;33.00;29.15
44992;BME280;56865;51.618;7.406;2023-04-19T14:29:36;101546.31;;;32.47;28.16
44992;BME280;56865;51.618;7.406;2023-04-19T14:32:06;101549.69;;;32.84;29.25
44992;BME280;56865;51.618;7.406;2023-04-19T14:34:42;101547.94;;;33.34;31.52
44992;BME280;56865;51.618;7.406;2023-04-19T14:37:22;101544.72;;;33.45;29.33
44992;BME280;56865;51.618;7.406;2023-04-19T14:39:52;101541.94;;;32.63;29.61
44992;BME280;56865;51.618;7.406;2023-04-19T14:42:24;101544.09;;;32.90;29.22
44992;BME280;56865;51.618;7.406;2023-04-19T14:44:54;101531.56;;;32.94;29.66
44992;BME280;56865;51.618;7.406;2023-04-19T14:47:24;101540.53;;;32.91;29.18
44992;BME280;56865;51.618;7.406;2023-04-19T14:49:54;101537.13;;;33.05;30.22
44992;BME280;56865;51.618;7.406;2023-04-19T14:52:23;101527.63;;;33.34;30.92
44992;BME280;56865;51.618;7.406;2023-04-19T14:54:55;101525.88;;;33.01;28.80
44992;BME280;56865;51.618;7.406;2023-04-19T14:57:30;101531.13;;;33.51;30.09
44992;BME280;56865;51.618;7.406;2023-04-19T15:00:03;101526.72;;;32.86;28.70
44992;BME280;56865;51.618;7.406;2023-04-19T15:02:35;101526.53;;;32.89;29.81
44992;BME280;56865;51.618;7.406;2023-04-19T15:05:05;101524.72;;;32.38;28.41
44992;BME280;56865;51.618;7.406;2023-04-19T15:07:37;101519.47;;;32.89;29.96
44992;BME280;56865;51.618;7.406;2023-04-19T15:10:07;101524.06;;;32.86;29.19
44992;BME280;56865;51.618;7.406;2023-04-19T15:12:39;101520.63;;;33.17;27.88
44992;BME280;56865;51.618;7.406;2023-04-19T15:15:09;101514.84;;;33.43;30.02
44992;BME280;56865;51.618;7.406;2023-04-19T15:17:39;101515.09;;;32.55;28.52
44992;BME280;56865;51.618;7.406;2023-04-19T15:20:09;101507.59;;;33.30;33.47
44992;BME280;56865;51.618;7.406;2023-04-19T15:22:39;101513.13;;;33.10;29.19
44992;BME280;56865;51.618;7.406;2023-04-19T15:25:10;101518.13;;;32.47;27.81
44992;BME280;56865;51.618;7.406;2023-04-19T15:27:45;101496.72;;;32.36;30.07
44992;BME280;56865;51.618;7.406;2023-04-19T15:30:15;101503.50;;;32.05;30.46
44992;BME280;56865;51.618;7.406;2023-04-19T15:32:45;101495.53;;;32.06;28.58
44992;BME280;56865;51.618;7.406;2023-04-19T15:35:14;101500.50;;;32.30;29.33
44992;BME280;56865;51.618;7.406;2023-04-19T15:37:45;101501.41;;;31.76;27.62
44992;BME280;56865;51.618;7.406;2023-04-19T15:40:15;101503.66;;;32.02;28.24
44992;BME280;56865;51.618;7.406;2023-04-19T15:42:47;101497.84;;;31.95;29.96
44992;BME280;56865;51.618;7.406;2023-04-19T15:45:22;101498.25;;;31.68;26.97
44992;BME280;56865;51.618;7.406;2023-04-19T15:50:32;101499.06;;;30.32;28.54
44992;BME280;56865;51.618;7.406;2023-04-19T15:53:02;101500.22;;;30.04;27.66
44992;BME280;56865;51.618;7.406;2023-04-19T15:55:32;101503.56;;;29.41;28.26
44992;BME280;56865;51.618;7.406;2023-04-19T15:58:04;101504.47;;;29.16;27.66
44992;BME280;56865;51.618;7.406;2023-04-19T16:00:34;101514.59;;;29.26;27.58
44992;BME280;56865;51.618;7.406;2023-04-19T16:03:04;101499.38;;;28.88;29.18
44992;BME280;56865;51.618;7.406;2023-04-19T16:05:33;101496.50;;;28.94;29.16
44992;BME280;56865;51.618;7.406;2023-04-19T16:08:03;101498.75;;;28.81;30.37
44992;BME280;56865;51.618;7.406;2023-04-19T16:10:34;101496.69;;;28.64;29.67
44992;BME280;56865;51.618;7.406;2023-04-19T16:13:07;101496.94;;;28.31;29.46
44992;BME280;56865;51.618;7.406;2023-04-19T16:15:39;101496.81;;;28.09;29.50
44992;BME280;56865;51.618;7.406;2023-04-19T16:18:09;101499.66;;;27.73;29.38
44992;BME280;56865;51.618;7.406;2023-04-19T16:20:39;101493.66;;;27.69;33.32
44992;BME280;56865;51.618;7.406;2023-04-19T16:23:09;101498.94;;;27.38;31.50
44992;BME280;56865;51.618;7.406;2023-04-19T16:25:40;101495.44;;;27.09;31.95
44992;BME280;56865;51.618;7.406;2023-04-19T16:28:12;101489.00;;;27.51;32.76
44992;BME280;56865;51.618;7.406;2023-04-19T16:30:43;101490.31;;;27.36;31.92
44992;BME280;56865;51.618;7.406;2023-04-19T16:33:13;101486.66;;;27.41;30.82
44992;BME280;56865;51.618;7.406;2023-04-19T16:35:43;101491.31;;;27.00;30.85
44992;BME280;56865;51.618;7.406;2023-04-19T16:38:13;101487.22;;;27.21;33.00
44992;BME280;56865;51.618;7.406;2023-04-19T16:40:43;101488.09;;;26.90;29.95
44992;BME280;56865;51.618;7.406;2023-04-19T16:43:17;101485.31;;;26.97;30.05
44992;BME280;56865;51.618;7.406;2023-04-19T16:45:47;101481.56;;;26.74;32.07
44992;BME280;56865;51.618;7.406;2023-04-19T16:48:18;101484.13;;;26.77;33.44
44992;BME280;56865;51.618;7.406;2023-04-19T16:50:48;101468.69;;;26.33;33.35
44992;BME280;56865;51.618;7.406;2023-04-19T16:53:18;101461.53;;;26.40;32.44
44992;BME280;56865;51.618;7.406;2023-04-19T16:55:50;101481.06;;;26.25;32.11
44992;BME280;56865;51.618;7.406;2023-04-19T16:58:24;101469.09;;;26.16;32.87
44992;BME280;56865;51.618;7.406;2023-04-19T17:00:55;101462.59;;;26.33;32.68
44992;BME280;56865;51.618;7.406;2023-04-19T17:03:27;101468.25;;;25.78;30.88
44992;BME280;56865;51.618;7.406;2023-04-19T17:05:58;101466.47;;;25.80;32.66
44992;BME280;56865;51.618;7.406;2023-04-19T17:08:28;101469.69;;;25.91;32.04
44992;BME280;56865;51.618;7.406;2023-04-19T17:10:58;101465.13;;;26.00;32.17
44992;BME280;56865;51.618;7.406;2023-04-19T17:13:31;101458.13;;;25.64;32.82
44992;BME280;56865;51.618;7.406;2023-04-19T17:16:01;101467.47;;;26.12;34.31
44992;BME280;56865;51.618;7.406;2023-04-19T17:18:31;101468.72;;;25.95;33.96
44992;BME280;56865;51.618;7.406;2023-04-19T17:21:01;101465.78;;;25.72;32.70
44992;BME280;56865;51.618;7.406;2023-04-19T17:23:30;101463.31;;;25.66;33.20
44992;BME280;56865;51.618;7.406;2023-04-19T17:26:00;101470.63;;;25.51;33.96
44992;BME280;56865;51.618;7.406;2023-04-19T17:28:33;101458.84;;;25.71;32.66
44992;BME280;56865;51.618;7.406;2023-04-19T17:37:51;101469.41;;;25.24;34.97
44992;BME280;56865;51.618;7.406;2023-04-19T17:41:15;101469.56;;;25.58;33.59
44992;BME280;56865;51.618;7.406;2023-04-19T18:18:25;101487.84;;;24.17;35.54
44992;BME280;56865;51.618;7.406;2023-04-19T18:24:50;101475.63;;;24.21;36.71
44992;BME280;56865;51.618;7.406;2023-04-19T18:28:05;101487.66;;;24.31;37.55
44992;BME280;56865;51.618;7.406;2023-04-19T18:31:08;101479.53;;;23.95;38.68
44992;BME280;56865;51.618;7.406;2023-04-19T18:37:47;101478.84;;;23.82;37.80
44992;BME280;56865;51.618;7.406;2023-04-19T18:40:37;101476.31;;;23.75;39.94
44992;BME280;56865;51.618;7.406;2023-04-19T18:43:36;101484.78;;;23.91;38.66
44992;BME280;56865;51.618;7.406;2023-04-19T19:11:54;101507.13;;;24.60;36.71
44992;BME280;56865;51.618;7.406;2023-04-19T19:14:33;101504.53;;;24.60;36.61
44992;BME280;56865;51.618;7.406;2023-04-19T19:17:17;101507.03;;;24.68;38.14
44992;BME280;56865;51.618;7.406;2023-04-19T19:20:55;101499.59;;;24.43;37.21
44992;BME280;56865;51.618;7.406;2023-04-19T19:23:45;101505.34;;;24.62;38.17
44992;BME280;56865;51.618;7.406;2023-04-19T19:26:23;101505.66;;;24.44;37.02
44992;BME280;56865;51.618;7.406;2023-04-19T19:31:59;101508.06;;;24.03;37.85
44992;BME280;56865;51.618;7.406;2023-04-19T19:34:33;101508.22;;;24.47;39.08
44992;BME280;56865;51.618;7.406;2023-04-19T19:37:50;101513.69;;;24.33;39.55
44992;BME280;56865;51.618;7.406;2023-04-19T19:40:37;101510.53;;;24.11;37.93
44992;BME280;56865;51.618;7.406;2023-04-19T19:43:47;101512.44;;;24.02;38.40
44992;BME280;56865;51.618;7.406;2023-04-19T19:46:56;101511.44;;;24.11;39.28
44992;BME280;56865;51.618;7.406;2023-04-19T19:52:45;101511.47;;;24.08;37.78
44992;BME280;56865;51.618;7.406;2023-04-19T19:55:44;101517.06;;;23.05;39.35
44992;BME280;56865;51.618;7.406;2023-04-19T19:58:27;101510.25;;;22.97;41.03